createdAt,value
2023-04-15T00:01:29.150Z,5.20
2023-04-15T00:04:03.080Z,4.93
2023-04-15T00:06:29.843Z,6.87
2023-04-15T00:09:04.034Z,5.63
2023-04-15T00:11:30.738Z,6.67
2023-04-15T00:14:04.948Z,4.97
2023-04-15T00:16:31.758Z,4.80
2023-04-15T00:18:58.694Z,5.97
2023-04-15T00:21:32.191Z,4.77
2023-04-15T00:24:04.997Z,4.83
2023-04-15T00:26:31.654Z,6.00
2023-04-15T00:29:05.088Z,6.27
2023-04-15T00:31:32.312Z,5.40
2023-04-15T00:33:59.947Z,5.67
2023-04-15T00:36:33.081Z,6.07
2023-04-15T00:39:00.216Z,6.77
2023-04-15T00:41:33.977Z,4.77
2023-04-15T00:44:08.188Z,5.83
2023-04-15T00:46:45.992Z,5.27
2023-04-15T00:49:13.440Z,5.33
2023-04-15T00:51:46.967Z,7.10
2023-04-15T00:54:14.092Z,7.03
2023-04-15T00:56:47.957Z,8.67
2023-04-15T00:59:15.304Z,7.60
2023-04-15T01:01:49.137Z,6.13
2023-04-15T01:04:22.632Z,6.90
2023-04-15T01:06:56.063Z,5.90
2023-04-15T01:09:22.921Z,7.57
2023-04-15T01:11:49.695Z,6.83
2023-04-15T01:14:23.040Z,7.70
2023-04-15T01:16:49.887Z,8.47
2023-04-15T01:19:24.987Z,6.63
2023-04-15T01:21:52.167Z,7.73
2023-04-15T01:24:26.048Z,7.40
2023-04-15T01:26:52.903Z,6.20
2023-04-15T01:29:27.040Z,7.60
2023-04-15T01:31:56.229Z,7.67
2023-04-15T01:34:30.047Z,6.40
2023-04-15T01:36:56.802Z,6.63
2023-04-15T01:39:23.710Z,7.13
2023-04-15T01:41:57.029Z,6.50
2023-04-15T01:44:30.167Z,7.23
2023-04-15T01:47:03.047Z,7.10
2023-04-15T01:49:29.904Z,7.73
2023-04-15T01:52:03.018Z,6.80
2023-04-15T01:54:29.910Z,8.23
2023-04-15T01:57:04.004Z,8.00
2023-04-15T01:59:31.605Z,7.50
2023-04-15T02:02:05.084Z,7.63
2023-04-15T02:04:38.012Z,7.63
2023-04-15T02:07:04.790Z,6.80
2023-04-15T02:09:38.015Z,7.13
2023-04-15T02:12:06.166Z,6.70
2023-04-15T02:14:39.028Z,7.87
2023-04-15T02:17:08.767Z,6.40
2023-04-15T02:19:43.090Z,7.67
2023-04-15T02:22:11.669Z,6.67
2023-04-15T02:24:45.014Z,8.03
2023-04-15T02:27:18.372Z,6.90
2023-04-15T02:29:53.043Z,8.00
2023-04-15T02:32:20.385Z,6.70
2023-04-15T02:34:54.053Z,6.60
2023-04-15T02:37:21.146Z,7.10
2023-04-15T02:39:48.010Z,8.30
2023-04-15T02:42:21.110Z,8.83
2023-04-15T02:44:47.933Z,7.17
2023-04-15T02:47:22.046Z,7.10
2023-04-15T02:49:48.829Z,7.00
2023-04-15T02:52:22.011Z,7.47
2023-04-15T02:54:48.875Z,7.10
2023-04-15T02:57:22.046Z,7.63
2023-04-15T02:59:48.803Z,6.70
2023-04-15T03:02:22.211Z,8.37
2023-04-15T03:04:56.057Z,6.47
2023-04-15T03:07:29.078Z,6.90
2023-04-15T03:09:55.782Z,8.87
2023-04-15T03:12:29.084Z,7.27
2023-04-15T03:15:02.108Z,8.20
2023-04-15T03:17:28.901Z,7.90
2023-04-15T03:20:02.034Z,7.13
2023-04-15T03:22:28.723Z,7.00
2023-04-15T03:25:02.060Z,9.20
2023-04-15T03:27:28.789Z,7.60
2023-04-15T03:30:03.129Z,9.60
2023-04-15T03:32:29.839Z,7.60
2023-04-15T03:34:56.540Z,8.03
2023-04-15T03:37:30.094Z,8.93
2023-04-15T03:39:56.884Z,7.60
2023-04-15T03:42:30.102Z,8.80
2023-04-15T03:45:04.401Z,9.30
2023-04-15T03:47:38.172Z,9.40
2023-04-15T03:50:05.298Z,8.67
2023-04-15T03:52:38.068Z,8.93
2023-04-15T03:55:05.461Z,9.27
2023-04-15T03:57:39.130Z,9.37
2023-04-15T04:00:07.268Z,9.50
2023-04-15T04:02:40.274Z,9.23
2023-04-15T04:05:07.299Z,12.27
2023-04-15T04:07:40.024Z,12.10
2023-04-15T04:10:07.336Z,9.60
2023-04-15T04:12:34.005Z,8.83
2023-04-15T04:15:07.090Z,9.73
2023-04-15T04:17:40.242Z,8.93
2023-04-15T04:20:14.094Z,10.23
2023-04-15T04:22:41.550Z,9.23
2023-04-15T04:25:17.135Z,9.70
2023-04-15T04:27:43.828Z,10.20
2023-04-15T04:30:17.147Z,10.63
2023-04-15T04:32:43.967Z,9.50
2023-04-15T04:35:18.179Z,9.50
2023-04-15T04:37:45.048Z,9.63
2023-04-15T04:40:35.224Z,11.27
2023-04-15T04:43:15.092Z,9.73
2023-04-15T04:45:48.240Z,9.90
2023-04-15T04:48:21.086Z,11.63
2023-04-15T04:50:54.135Z,9.13
2023-04-15T04:53:20.890Z,10.17
2023-04-15T04:55:54.055Z,12.87
2023-04-15T04:58:20.837Z,11.27
2023-04-15T05:00:54.114Z,10.53
2023-04-15T05:03:27.243Z,10.13
2023-04-15T05:06:01.123Z,11.40
2023-04-15T05:08:34.293Z,9.87
2023-04-15T05:11:01.155Z,10.67
2023-04-15T05:13:34.230Z,11.03
2023-04-15T05:16:07.150Z,9.47
2023-04-15T05:18:41.154Z,10.20
2023-04-15T05:21:07.900Z,9.97
2023-04-15T05:23:34.808Z,11.43
2023-04-15T05:26:08.072Z,12.63
2023-04-15T05:28:41.159Z,12.30
2023-04-15T05:31:15.186Z,12.37
2023-04-15T05:33:42.155Z,11.23
2023-04-15T05:36:15.080Z,11.47
2023-04-15T05:38:42.300Z,11.93
2023-04-15T05:41:18.395Z,12.87
2023-04-15T05:43:52.637Z,12.17
2023-04-15T05:46:26.126Z,13.20
2023-04-15T05:48:54.660Z,12.00
2023-04-15T05:51:28.166Z,13.33
2023-04-15T05:53:54.805Z,14.37
2023-04-15T05:56:28.179Z,12.77
2023-04-15T05:58:54.960Z,15.60
2023-04-15T06:01:29.208Z,14.27
2023-04-15T06:03:56.458Z,12.80
2023-04-15T06:06:30.154Z,13.93
2023-04-15T06:08:57.692Z,15.97
2023-04-15T06:11:31.212Z,15.67
2023-04-15T06:13:58.056Z,18.47
2023-04-15T06:16:31.287Z,16.57
2023-04-15T06:19:04.118Z,17.37
2023-04-15T06:21:31.736Z,15.70
2023-04-15T06:24:07.212Z,14.50
2023-04-15T06:26:33.983Z,17.23
2023-04-15T06:29:07.101Z,15.33
2023-04-15T06:31:34.015Z,14.80
2023-04-15T06:34:07.177Z,15.30
2023-04-15T06:36:34.034Z,17.43
2023-04-15T06:39:08.142Z,15.33
2023-04-15T06:41:42.077Z,14.83
2023-04-15T06:44:22.152Z,18.87
2023-04-15T06:46:48.974Z,13.00
2023-04-15T06:49:22.164Z,16.40
2023-04-15T06:51:55.160Z,14.73
2023-04-15T06:54:21.955Z,15.83
2023-04-15T06:56:55.163Z,13.40
2023-04-15T06:59:21.916Z,15.13
2023-04-15T07:01:55.120Z,15.30
2023-04-15T07:04:21.890Z,14.47
2023-04-15T07:06:55.164Z,16.43
2023-04-15T07:09:23.273Z,13.47
2023-04-15T07:11:56.119Z,15.10
2023-04-15T07:14:22.937Z,15.10
2023-04-15T07:16:56.162Z,14.03
2023-04-15T07:19:30.186Z,14.57
2023-04-15T07:22:03.240Z,13.40
2023-04-15T07:24:37.352Z,16.43
2023-04-15T07:27:04.341Z,13.32
2023-04-15T07:29:38.133Z,14.20
2023-04-15T07:32:05.208Z,14.38
2023-04-15T07:34:38.230Z,14.90
2023-04-15T07:37:04.870Z,13.80
2023-04-15T07:39:38.176Z,16.45
2023-04-15T07:42:11.166Z,15.73
2023-04-15T07:44:51.150Z,15.52
2023-04-15T07:47:17.843Z,14.63
2023-04-15T07:49:51.163Z,12.75
2023-04-15T07:52:24.243Z,13.15
2023-04-15T07:54:51.246Z,13.00
2023-04-15T07:57:24.167Z,12.73
2023-04-15T07:59:50.846Z,11.93
2023-04-15T08:02:24.292Z,13.73
2023-04-15T08:04:51.140Z,13.85
2023-04-15T08:07:25.216Z,14.90
2023-04-15T08:09:51.994Z,12.68
2023-04-15T08:12:25.211Z,12.88
2023-04-15T08:14:52.364Z,13.05
2023-04-15T08:17:19.072Z,11.43
2023-04-15T08:19:52.179Z,11.57
2023-04-15T08:22:19.685Z,11.65
2023-04-15T08:24:54.166Z,11.38
2023-04-15T08:27:20.885Z,11.73
2023-04-15T08:29:54.219Z,9.57
2023-04-15T08:32:21.485Z,7.88
2023-04-15T08:34:55.276Z,9.40
2023-04-15T08:37:23.173Z,7.85
2023-04-15T08:39:57.286Z,7.68
2023-04-15T08:42:37.688Z,7.80
2023-04-15T08:45:12.269Z,7.60
2023-04-15T08:47:48.244Z,9.80
2023-04-15T08:50:23.208Z,8.93
2023-04-15T08:52:56.267Z,8.45
2023-04-15T08:55:30.241Z,8.35
2023-04-15T08:57:57.592Z,6.90
2023-04-15T09:00:31.406Z,7.60
2023-04-15T09:03:06.318Z,7.28
2023-04-15T09:05:34.529Z,6.35
2023-04-15T09:08:09.219Z,6.88
2023-04-15T09:10:37.029Z,6.50
2023-04-15T09:13:11.291Z,7.68
2023-04-15T09:15:40.695Z,7.80
2023-04-15T09:18:14.283Z,6.88
2023-04-15T09:20:45.370Z,6.75
2023-04-15T09:23:21.239Z,5.63
2023-04-15T09:25:49.455Z,7.35
2023-04-15T09:28:31.190Z,5.60
2023-04-15T09:31:08.247Z,4.97
2023-04-15T09:33:41.229Z,6.25
2023-04-15T09:36:08.136Z,5.40
2023-04-15T09:38:41.301Z,5.43
2023-04-15T09:41:18.927Z,5.07
2023-04-15T09:43:59.286Z,4.82
2023-04-15T09:46:59.235Z,5.97
2023-04-15T09:49:26.188Z,5.38
2023-04-15T09:52:06.504Z,6.22
2023-04-15T09:54:38.995Z,6.15
2023-04-15T09:57:16.240Z,5.32
2023-04-15T09:59:43.024Z,5.43
2023-04-15T10:02:18.391Z,5.38
2023-04-15T10:04:45.852Z,5.38
2023-04-15T10:07:19.290Z,5.03
2023-04-15T10:09:47.177Z,4.65
2023-04-15T10:12:23.264Z,5.93
2023-04-15T10:14:56.593Z,4.70
2023-04-15T10:17:31.817Z,4.13
2023-04-15T10:20:09.567Z,4.35
2023-04-15T10:22:44.299Z,5.40
2023-04-15T10:25:12.372Z,4.28
2023-04-15T10:27:49.280Z,3.47
2023-04-15T10:30:23.357Z,4.30
2023-04-15T10:32:50.650Z,5.80
2023-04-15T10:35:25.343Z,5.28
2023-04-15T10:37:52.088Z,3.13
2023-04-15T10:40:39.318Z,3.42
2023-04-15T10:43:39.284Z,3.20
2023-04-15T10:46:13.295Z,4.97
2023-04-15T10:48:46.947Z,3.38
2023-04-15T10:51:21.274Z,5.75
2023-04-15T10:53:48.350Z,3.40
2023-04-15T10:56:24.259Z,4.03
2023-04-15T10:58:51.392Z,3.30
2023-04-15T11:01:30.406Z,4.57
2023-04-15T11:03:57.283Z,3.47
2023-04-15T11:06:51.271Z,3.85
2023-04-15T11:09:41.252Z,3.25
2023-04-15T11:12:09.987Z,4.28
2023-04-15T11:14:47.252Z,3.47
2023-04-15T11:17:14.001Z,4.40
2023-04-15T11:19:47.257Z,3.92
2023-04-15T11:22:14.027Z,7.70
2023-04-15T11:24:57.287Z,30.42
2023-04-15T11:27:24.262Z,5.80
2023-04-15T11:29:57.352Z,3.42
2023-04-15T11:32:24.207Z,3.30
2023-04-15T11:34:59.278Z,3.40
2023-04-15T11:37:30.349Z,3.80
2023-04-15T11:40:03.286Z,3.45
2023-04-15T11:42:39.449Z,2.67
2023-04-15T11:45:23.335Z,5.05
2023-04-15T11:47:50.259Z,3.20
2023-04-15T11:50:24.384Z,2.90
2023-04-15T11:52:59.096Z,4.25
2023-04-15T11:55:33.522Z,5.65
2023-04-15T11:58:17.101Z,3.55
2023-04-15T12:01:07.447Z,4.15
2023-04-15T12:03:38.757Z,3.63
2023-04-15T12:06:32.357Z,2.75
2023-04-15T12:09:00.551Z,4.78
2023-04-15T12:11:33.431Z,4.18
2023-04-15T12:14:09.572Z,3.08
2023-04-15T12:16:48.469Z,2.90
2023-04-15T12:19:36.494Z,3.05
2023-04-15T12:22:17.283Z,4.10
2023-04-15T12:24:48.043Z,3.25
2023-04-15T12:27:33.342Z,4.25
2023-04-15T12:30:06.627Z,3.58
2023-04-15T12:32:43.633Z,3.95
2023-04-15T12:35:10.669Z,4.80
2023-04-15T12:37:44.369Z,3.95
2023-04-15T12:40:11.697Z,3.95
2023-04-15T12:42:38.404Z,2.97
2023-04-15T12:45:12.423Z,20.38
2023-04-15T12:47:45.439Z,3.40
2023-04-15T12:50:12.174Z,4.32
2023-04-15T12:52:45.348Z,4.05
2023-04-15T12:55:12.467Z,2.60
2023-04-15T12:57:46.361Z,2.45
2023-04-15T13:00:20.297Z,4.97
2023-04-15T13:02:47.340Z,2.45
2023-04-15T13:05:22.435Z,3.40
2023-04-15T13:07:49.115Z,5.20
2023-04-15T13:10:22.385Z,11.07
2023-04-15T13:12:50.731Z,5.60
2023-04-15T13:15:20.798Z,4.70
2023-04-15T13:17:54.400Z,2.30
2023-04-15T13:20:21.439Z,5.40
2023-04-15T13:22:55.369Z,2.50
2023-04-15T13:25:22.410Z,3.15
2023-04-15T13:27:56.311Z,3.78
2023-04-15T13:30:23.066Z,3.10
2023-04-15T13:32:57.466Z,3.60
2023-04-15T13:35:24.338Z,3.05
2023-04-15T13:37:57.334Z,3.22
2023-04-15T13:40:24.109Z,4.47
2023-04-15T13:43:05.351Z,6.40
2023-04-15T13:45:39.283Z,23.40
2023-04-15T13:48:13.365Z,7.47
2023-04-15T13:50:48.417Z,3.53
2023-04-15T13:53:21.366Z,5.03
2023-04-15T13:56:00.791Z,4.45
2023-04-15T13:58:34.534Z,3.90
2023-04-15T14:01:03.258Z,4.57
2023-04-15T14:03:38.643Z,4.13
2023-04-15T14:06:13.390Z,5.00
2023-04-15T14:08:40.263Z,4.03
2023-04-15T14:11:13.368Z,4.05
2023-04-15T14:13:40.281Z,3.80
2023-04-15T14:16:13.426Z,3.65
2023-04-15T14:18:40.727Z,4.75
2023-04-15T14:21:14.408Z,3.55
2023-04-15T14:23:41.290Z,3.85
2023-04-15T14:26:14.447Z,4.22
2023-04-15T14:28:41.525Z,3.45
2023-04-15T14:31:14.481Z,4.30
2023-04-15T14:33:41.734Z,2.17
2023-04-15T14:36:09.606Z,5.65
2023-04-15T14:38:48.492Z,2.95
2023-04-15T14:41:16.331Z,4.30
2023-04-15T14:43:49.359Z,5.85
2023-04-15T14:46:22.532Z,4.40
2023-04-15T14:48:56.446Z,5.57
2023-04-15T14:51:23.440Z,3.80
2023-04-15T14:53:56.433Z,3.63
2023-04-15T14:56:23.284Z,6.03
2023-04-15T14:58:57.385Z,2.70
2023-04-15T15:01:24.180Z,3.50
2023-04-15T15:03:57.520Z,3.42
2023-04-15T15:06:30.446Z,4.57
2023-04-15T15:08:57.266Z,6.90
2023-04-15T15:11:30.459Z,3.45
2023-04-15T15:13:57.439Z,4.55
2023-04-15T15:16:31.382Z,3.25
2023-04-15T15:18:58.249Z,3.80
2023-04-15T15:21:31.491Z,5.13
2023-04-15T15:23:58.339Z,3.00
2023-04-15T15:26:31.502Z,2.30
2023-04-15T15:29:05.529Z,3.88
2023-04-15T15:31:39.489Z,2.70
2023-04-15T15:34:12.420Z,3.03
2023-04-15T15:36:39.184Z,2.05
2023-04-15T15:39:12.498Z,3.08
2023-04-15T15:41:39.206Z,2.67
2023-04-15T15:44:19.448Z,4.07
2023-04-15T15:46:46.469Z,3.80
2023-04-15T15:49:20.420Z,3.90
2023-04-15T15:51:47.255Z,7.70
2023-04-15T15:54:20.421Z,4.70
2023-04-15T15:56:47.297Z,3.22
2023-04-15T15:59:20.459Z,5.20
2023-04-15T16:01:48.516Z,5.28
2023-04-15T16:04:22.732Z,5.55
2023-04-15T16:06:56.479Z,5.88
2023-04-15T16:09:23.219Z,4.55
2023-04-15T16:11:56.398Z,4.90
2023-04-15T16:14:25.378Z,18.15
2023-04-15T16:16:59.436Z,4.80
2023-04-15T16:19:26.236Z,4.78
2023-04-15T16:22:00.431Z,3.70
2023-04-15T16:24:27.787Z,4.35
2023-04-15T16:27:01.410Z,7.78
2023-04-15T16:29:28.773Z,5.18
2023-04-15T16:32:02.525Z,6.13
2023-04-15T16:34:29.395Z,3.85
2023-04-15T16:37:02.449Z,5.15
2023-04-15T16:39:35.427Z,9.07
2023-04-15T16:42:09.492Z,5.78
2023-04-15T16:44:42.513Z,6.05
2023-04-15T16:47:11.526Z,6.53
2023-04-15T16:49:45.468Z,2.85
2023-04-15T16:52:12.213Z,4.72
2023-04-15T16:54:48.523Z,8.70
2023-04-15T16:57:15.303Z,3.60
2023-04-15T16:59:48.474Z,4.95
2023-04-15T17:02:21.745Z,4.15
2023-04-15T17:04:55.466Z,4.35
2023-04-15T17:07:22.230Z,4.82
2023-04-15T17:09:55.547Z,7.60
2023-04-15T17:12:22.434Z,4.03
2023-04-15T17:14:49.196Z,7.15
2023-04-15T17:17:23.674Z,5.07
2023-04-15T17:19:50.541Z,6.95
2023-04-15T17:22:23.467Z,5.43
2023-04-15T17:24:50.570Z,8.98
2023-04-15T17:27:23.478Z,19.52
2023-04-15T17:29:50.136Z,5.93
2023-04-15T17:32:23.537Z,7.20
2023-04-15T17:34:51.515Z,6.50
2023-04-15T17:37:25.438Z,6.95
2023-04-15T17:39:52.482Z,5.50
2023-04-15T17:42:25.428Z,6.93
2023-04-15T17:45:05.452Z,6.63
2023-04-15T17:47:38.628Z,7.60
2023-04-15T17:50:12.506Z,6.35
2023-04-15T17:52:39.330Z,8.35
2023-04-15T17:55:13.548Z,6.68
2023-04-15T17:57:40.513Z,7.57
2023-04-15T18:00:16.553Z,8.48
2023-04-15T18:02:43.563Z,7.28
2023-04-15T18:05:17.625Z,5.15
2023-04-15T18:07:44.891Z,7.40
2023-04-15T18:10:12.015Z,10.02
2023-04-15T18:12:45.517Z,10.57
2023-04-15T18:15:12.460Z,7.30
2023-04-15T18:17:45.562Z,9.40
2023-04-15T18:20:13.151Z,6.78
2023-04-15T18:22:46.533Z,6.57
2023-04-15T18:25:13.588Z,8.75
2023-04-15T18:27:47.560Z,10.02
2023-04-15T18:30:14.364Z,6.57
2023-04-15T18:32:48.719Z,10.25
2023-04-15T18:35:17.368Z,7.28
2023-04-15T18:37:50.505Z,7.50
2023-04-15T18:40:23.552Z,8.73
2023-04-15T18:42:56.595Z,7.38
2023-04-15T18:45:31.182Z,8.05
2023-04-15T18:48:04.594Z,8.00
2023-04-15T18:50:37.491Z,10.52
2023-04-15T18:53:04.285Z,7.85
2023-04-15T18:55:38.568Z,8.80
2023-04-15T18:58:06.556Z,7.20
2023-04-15T19:00:45.561Z,10.30
2023-04-15T19:03:12.398Z,8.05
2023-04-15T19:05:46.621Z,9.88
2023-04-15T19:08:13.574Z,12.43
2023-04-15T19:10:47.671Z,8.27
2023-04-15T19:13:20.502Z,10.68
2023-04-15T19:15:53.575Z,12.90
2023-04-15T19:18:28.621Z,10.75
2023-04-15T19:20:56.836Z,11.88
2023-04-15T19:23:30.523Z,9.18
2023-04-15T19:25:57.683Z,9.57
2023-04-15T19:28:31.539Z,11.00
2023-04-15T19:30:58.796Z,11.25
2023-04-15T19:33:37.505Z,11.88
2023-04-15T19:36:12.558Z,9.45
2023-04-15T19:38:45.536Z,14.55
2023-04-15T19:41:12.328Z,12.50
2023-04-15T19:43:52.669Z,12.75
2023-04-15T19:46:27.212Z,10.25
2023-04-15T19:49:02.567Z,13.18
2023-04-15T19:51:29.859Z,11.85
2023-04-15T19:54:03.524Z,10.05
2023-04-15T19:56:31.737Z,11.35
2023-04-15T19:59:07.882Z,10.00
2023-04-15T20:01:34.777Z,12.75
2023-04-15T20:04:09.675Z,8.90
2023-04-15T20:06:43.617Z,14.85
2023-04-15T20:09:11.404Z,13.98
2023-04-15T20:12:46.094Z,12.23
2023-04-15T20:14:37.513Z,14.05
2023-04-15T20:17:10.638Z,14.07
2023-04-15T20:19:37.413Z,9.13
2023-04-15T20:22:10.644Z,13.68
2023-04-15T20:24:37.485Z,12.70
2023-04-15T20:27:10.711Z,14.38
2023-04-15T20:29:38.117Z,13.88
2023-04-15T20:32:05.166Z,12.18
2023-04-15T20:34:38.533Z,12.80
2023-04-15T20:37:05.817Z,11.35
2023-04-15T20:39:38.563Z,9.82
2023-04-15T20:42:05.325Z,12.32
2023-04-15T20:44:38.631Z,13.32
2023-04-15T20:47:12.705Z,15.25
2023-04-15T20:49:46.536Z,13.63
2023-04-15T20:52:19.591Z,12.70
2023-04-15T20:54:53.717Z,12.45
2023-04-15T20:57:20.629Z,12.43
2023-04-15T20:59:53.672Z,10.48
2023-04-15T21:02:20.488Z,11.88
2023-04-15T21:04:53.563Z,13.18
2023-04-15T21:07:26.641Z,13.05
2023-04-15T21:09:53.409Z,13.70
2023-04-15T21:12:26.551Z,12.15
2023-04-15T21:14:53.384Z,10.38
2023-04-15T21:17:26.584Z,14.15
2023-04-15T21:19:53.418Z,14.75
2023-04-15T21:22:26.679Z,16.08
2023-04-15T21:24:53.516Z,14.82
2023-04-15T21:27:26.597Z,14.23
2023-04-15T21:29:53.393Z,14.68
2023-04-15T21:32:26.658Z,14.23
2023-04-15T21:34:53.425Z,17.02
2023-04-15T21:37:20.210Z,13.52
2023-04-15T21:39:53.592Z,14.55
2023-04-15T21:42:20.407Z,13.65
2023-04-15T21:44:53.627Z,13.60
2023-04-15T21:47:27.130Z,15.75
2023-04-15T21:50:00.626Z,15.68
2023-04-15T21:52:27.407Z,13.13
2023-04-15T21:55:00.610Z,17.50
2023-04-15T21:57:27.428Z,14.18
2023-04-15T22:00:00.612Z,22.00
2023-04-15T22:02:27.660Z,16.80
2023-04-15T22:05:00.638Z,15.63
2023-04-15T22:07:27.380Z,17.05
2023-04-15T22:10:00.615Z,17.95
2023-04-15T22:12:33.560Z,19.48
2023-04-15T22:15:07.579Z,16.48
2023-04-15T22:17:40.714Z,21.33
2023-04-15T22:20:08.331Z,18.65
2023-04-15T22:22:48.703Z,19.17
2023-04-15T22:25:21.299Z,24.83
2023-04-15T22:27:54.632Z,25.05
2023-04-15T22:30:21.566Z,23.58
2023-04-15T22:33:01.681Z,17.88
2023-04-15T22:35:28.619Z,23.60
2023-04-15T22:38:01.661Z,25.15
2023-04-15T22:40:29.138Z,24.30
2023-04-15T22:42:55.953Z,25.67
2023-04-15T22:45:29.585Z,21.92
2023-04-15T22:48:03.007Z,20.85
2023-04-15T22:50:36.605Z,16.65
2023-04-15T22:53:03.339Z,22.48
2023-04-15T22:55:36.579Z,22.75
2023-04-15T22:58:03.433Z,22.55
2023-04-15T23:00:36.590Z,17.52
2023-04-15T23:03:03.452Z,18.65
2023-04-15T23:05:36.741Z,23.85
2023-04-15T23:08:03.531Z,23.27
2023-04-15T23:10:36.636Z,17.92
2023-04-15T23:13:09.641Z,22.45
2023-04-15T23:15:43.707Z,22.45
2023-04-15T23:18:10.706Z,19.90
2023-04-15T23:20:43.705Z,22.02
2023-04-15T23:23:16.694Z,23.10
2023-04-15T23:25:49.843Z,23.45
2023-04-15T23:28:22.643Z,21.20
2023-04-15T23:30:50.327Z,22.25
2023-04-15T23:33:23.680Z,24.92
2023-04-15T23:35:50.766Z,28.45
2023-04-15T23:38:23.694Z,26.77
2023-04-15T23:40:53.357Z,27.00
2023-04-15T23:43:26.656Z,25.27
2023-04-15T23:45:59.807Z,26.13
2023-04-15T23:48:39.613Z,25.55
2023-04-15T23:51:13.733Z,28.67
2023-04-15T23:53:40.856Z,33.30
2023-04-15T23:56:14.697Z,30.48
2023-04-15T23:58:48.177Z,29.15
